Hampden Station, Pennsylvania
Current Conditions -  °F | °C
As of 3:15 AM on Tuesday 27 Jan 2015 (Local Time) from KCXY Reporting Station
Light Snow Light Snow  
Wind Chill: 17°   Ceiling: 3100
Heat Index: 27°   Visibility: 7mi
Dew Point: 21°   Wind: 10mph
Humidity: 78%   Direction: 330°NNW
Pressure: 29.77"   Gusts: NA
Location:  40.2485°N, 77.0142°W
Report Text: KCXY 270815Z AUTO 33009KT 7SM -SN OVC031 M03/M06 A2977 RMK AO2 SNB00 P0000 T10281061
Loading
Personal Weather Stations






























Interactive Weather Map New forecast layout! Learn more

10-Day Weather Forecast

Advertisements
Track Severe Weather on mobile